Time;durP1;ratioP1;P1;durP2;ratioP2;P2;SDS_P1;SDS_P2;PMS_P1;PMS_P2;Temp;Humidity;BMP_temperature;BMP_pressure;BME280_temperature;BME280_humidity;BME280_pressure;Samples;Min_cycle;Max_cycle;Signal;HPM_P1;HPM_P2
2022/07/07 00:02:08;;;;;;;5.68;1.88;;;16.80;99.90;;;;;;4957381;29;20031;-86
2022/07/07 00:04:33;;;;;;;5.05;1.77;;;16.70;99.90;;;;;;4958437;28;20031;-87
2022/07/07 00:06:59;;;;;;;4.90;1.70;;;16.60;99.90;;;;;;4957123;28;20031;-87
2022/07/07 00:09:26;;;;;;;4.40;1.95;;;16.60;99.90;;;;;;4957487;29;20363;-87
2022/07/07 00:11:51;;;;;;;4.40;1.75;;;16.60;99.90;;;;;;4957026;28;20114;-87
2022/07/07 00:14:17;;;;;;;4.57;2.10;;;16.60;99.90;;;;;;4956561;29;20055;-86
2022/07/07 00:16:43;;;;;;;4.18;1.92;;;16.60;99.90;;;;;;4957028;29;20023;-87
2022/07/07 00:19:08;;;;;;;8.40;2.25;;;16.60;99.90;;;;;;4956575;28;20082;-87
2022/07/07 00:21:34;;;;;;;10.02;2.30;;;16.60;99.90;;;;;;4957676;28;20023;-87
2022/07/07 00:24:00;;;;;;;7.88;1.90;;;16.60;99.90;;;;;;4957301;29;20035;-87
2022/07/07 00:26:25;;;;;;;4.25;1.88;;;16.60;99.90;;;;;;4956464;29;20110;-87
2022/07/07 00:28:51;;;;;;;4.63;1.90;;;16.60;99.90;;;;;;4956700;29;20055;-87
2022/07/07 00:33:59;;;;;;;5.47;1.83;;;16.60;99.90;;;;;;4994883;28;20470;-79
2022/07/07 00:36:26;;;;;;;7.57;2.00;;;16.60;99.90;;;;;;5003267;28;20046;-79
2022/07/07 00:38:52;;;;;;;3.92;1.50;;;16.60;99.90;;;;;;4994606;28;20113;-79
2022/07/07 00:41:17;;;;;;;7.03;2.20;;;16.60;99.90;;;;;;4982529;28;20031;-79
2022/07/07 00:43:43;;;;;;;8.13;2.20;;;16.60;99.90;;;;;;4989851;28;20030;-79
2022/07/07 00:46:11;;;;;;;5.68;2.10;;;16.60;99.90;;;;;;4983105;28;20034;-79
2022/07/07 00:48:39;;;;;;;11.30;2.08;;;16.60;99.90;;;;;;4987082;28;20359;-79
2022/07/07 00:51:06;;;;;;;6.97;1.83;;;16.60;99.90;;;;;;4991620;28;20022;-79
2022/07/07 00:53:32;;;;;;;4.93;1.85;;;16.60;99.90;;;;;;4995936;28;20133;-79
2022/07/07 00:55:57;;;;;;;4.30;1.63;;;16.70;99.90;;;;;;4996250;28;20478;-80
2022/07/07 00:58:23;;;;;;;5.15;1.63;;;16.70;99.90;;;;;;4996262;28;20018;-79
2022/07/07 01:00:49;;;;;;;9.77;1.95;;;16.70;99.90;;;;;;4995999;28;20022;-80
2022/07/07 01:03:34;;;;;;;6.50;2.22;;;16.60;99.90;;;;;;4989895;28;20380;-79
2022/07/07 01:05:59;;;;;;;11.02;1.98;;;16.70;99.90;;;;;;4977019;28;20027;-80
2022/07/07 01:08:26;;;;;;;5.95;1.83;;;16.70;99.90;;;;;;4988368;28;20041;-79
2022/07/07 01:10:58;;;;;;;6.30;2.08;;;16.70;99.90;;;;;;4996399;28;20030;-79
2022/07/07 01:13:24;;;;;;;7.93;1.92;;;16.70;99.90;;;;;;4996088;28;20030;-79
2022/07/07 01:15:49;;;;;;;8.68;1.90;;;16.60;99.90;;;;;;4995653;28;20018;-80
2022/07/07 01:18:15;;;;;;;6.57;2.15;;;16.60;99.90;;;;;;4995778;28;20121;-79
2022/07/07 01:20:46;;;;;;;7.07;2.20;;;16.60;99.90;;;;;;4996124;28;20023;-79
2022/07/07 01:23:12;;;;;;;7.43;2.25;;;16.60;99.90;;;;;;4995797;28;20066;-78
2022/07/07 01:25:38;;;;;;;10.98;2.33;;;16.60;99.90;;;;;;4993048;28;20037;-79
2022/07/07 01:28:04;;;;;;;6.22;1.70;;;16.60;99.90;;;;;;4984131;28;20097;-79
2022/07/07 01:30:29;;;;;;;6.28;1.42;;;16.70;99.90;;;;;;4995491;28;20105;-79
2022/07/07 01:32:55;;;;;;;4.57;0.95;;;16.60;99.90;;;;;;4982954;28;20050;-78
2022/07/07 01:35:20;;;;;;;2.13;0.70;;;16.60;99.90;;;;;;4974396;28;20486;-79
2022/07/07 01:37:46;;;;;;;2.58;0.88;;;16.50;99.90;;;;;;4975467;28;20027;-78
2022/07/07 01:40:11;;;;;;;4.00;1.00;;;16.40;99.90;;;;;;4975553;28;20035;-79
2022/07/07 01:42:37;;;;;;;5.05;1.13;;;16.40;99.90;;;;;;4975435;28;20081;-78
2022/07/07 01:45:03;;;;;;;6.20;1.13;;;16.40;99.90;;;;;;4975059;28;20038;-79
2022/07/07 01:47:30;;;;;;;8.65;1.27;;;16.40;99.90;;;;;;4975269;28;20031;-78
2022/07/07 01:49:55;;;;;;;3.92;1.40;;;16.40;99.90;;;;;;4975531;28;20513;-78
2022/07/07 01:52:21;;;;;;;4.10;1.17;;;16.40;99.90;;;;;;4974512;28;20026;-78
2022/07/07 01:54:47;;;;;;;4.90;1.38;;;16.40;99.90;;;;;;4975682;28;20500;-79
2022/07/07 01:57:12;;;;;;;3.55;1.20;;;16.40;99.90;;;;;;4975585;28;20027;-78
2022/07/07 01:59:39;;;;;;;6.25;1.23;;;16.40;99.90;;;;;;4975732;28;20033;-79
2022/07/07 02:02:05;;;;;;;9.65;1.70;;;16.40;99.90;;;;;;4975307;28;20023;-79
2022/07/07 02:04:31;;;;;;;6.28;2.40;;;16.40;99.90;;;;;;4975423;28;20035;-79
2022/07/07 02:06:56;;;;;;;7.60;1.60;;;16.40;99.90;;;;;;4976137;28;20023;-79
2022/07/07 02:09:22;;;;;;;6.78;1.75;;;16.40;99.90;;;;;;4975695;28;20025;-79
2022/07/07 02:11:48;;;;;;;8.70;1.83;;;16.40;99.90;;;;;;4975225;28;20093;-79
2022/07/07 02:14:13;;;;;;;5.05;2.22;;;16.40;99.90;;;;;;4975730;28;20058;-80
2022/07/07 02:16:39;;;;;;;6.90;2.05;;;16.30;99.90;;;;;;4975597;28;20019;-80
2022/07/07 02:19:06;;;;;;;9.55;2.28;;;16.30;99.90;;;;;;4975477;28;20372;-79
2022/07/07 02:21:33;;;;;;;10.23;2.00;;;16.30;99.90;;;;;;4976143;28;20027;-79
2022/07/07 02:23:59;;;;;;;6.10;1.33;;;16.40;99.90;;;;;;4975218;28;20039;-79
2022/07/07 02:26:25;;;;;;;6.07;2.00;;;16.40;99.90;;;;;;4975219;28;20090;-79
2022/07/07 02:28:51;;;;;;;4.20;1.00;;;16.40;99.90;;;;;;4975643;28;20106;-79
2022/07/07 02:31:17;;;;;;;3.78;0.63;;;16.40;99.90;;;;;;4975286;28;20430;-79
2022/07/07 02:33:43;;;;;;;6.65;0.82;;;16.30;98.80;;;;;;4973597;28;20271;-79
2022/07/07 02:36:09;;;;;;;6.30;1.33;;;16.40;99.50;;;;;;4974853;28;20387;-79
2022/07/07 02:38:36;;;;;;;4.65;1.05;;;16.30;94.30;;;;;;4974859;28;20490;-79
2022/07/07 02:41:02;;;;;;;7.00;0.93;;;16.30;87.00;;;;;;4975416;28;20023;-79
2022/07/07 02:43:28;;;;;;;10.80;0.90;;;16.30;93.50;;;;;;4975156;28;20035;-79
2022/07/07 02:45:53;;;;;;;8.02;1.48;;;16.30;95.00;;;;;;4975010;28;20025;-79
2022/07/07 02:48:21;;;;;;;5.13;0.90;;;16.40;88.10;;;;;;4974883;28;20023;-79
2022/07/07 02:50:47;;;;;;;5.28;0.70;;;16.30;70.40;;;;;;4974821;28;20023;-79
2022/07/07 02:53:13;;;;;;;9.82;0.88;;;16.20;69.60;;;;;;4975218;28;20046;-79
2022/07/07 02:55:40;;;;;;;7.47;0.80;;;16.20;63.00;;;;;;4977234;28;20050;-79
2022/07/07 02:58:06;;;;;;;4.90;0.75;;;16.20;56.40;;;;;;4965104;28;20038;-79
2022/07/07 03:00:36;;;;;;;3.95;0.85;;;16.10;48.20;;;;;;4978878;28;20031;-79
2022/07/07 03:03:06;;;;;;;3.95;0.68;;;16.00;99.90;;;;;;4978745;28;20041;-79
2022/07/07 03:05:32;;;;;;;3.50;0.50;;;16.00;99.90;;;;;;4978883;28;20046;-78
2022/07/07 03:07:58;;;;;;;5.18;0.57;;;15.90;99.90;;;;;;4979086;28;20026;-79
2022/07/07 03:10:24;;;;;;;9.30;0.93;;;15.90;56.80;;;;;;4978623;28;20019;-79
2022/07/07 03:12:50;;;;;;;4.30;0.50;;;15.90;51.90;;;;;;4979224;28;20030;-79
2022/07/07 03:15:15;;;;;;;3.78;0.50;;;15.90;75.00;;;;;;4979494;28;20034;-80
2022/07/07 03:17:43;;;;;;;4.05;0.60;;;15.80;97.80;;;;;;4979401;28;20022;-79
2022/07/07 03:20:10;;;;;;;2.50;0.63;;;15.80;99.90;;;;;;4966388;28;20035;-79
2022/07/07 03:22:39;;;;;;;5.35;0.70;;;15.80;99.90;;;;;;4979954;28;20102;-78
2022/07/07 03:25:06;;;;;;;8.82;1.55;;;15.70;99.90;;;;;;4978326;28;20479;-79
2022/07/07 03:27:32;;;;;;;3.28;0.60;;;15.70;92.50;;;;;;4978259;28;20027;-79
2022/07/07 03:29:58;;;;;;;8.32;0.80;;;15.60;68.90;;;;;;4978160;28;20107;-79
2022/07/07 03:32:23;;;;;;;4.13;0.73;;;15.60;72.40;;;;;;4977718;28;20051;-78
2022/07/07 03:34:49;;;;;;;4.22;0.50;;;15.70;45.40;;;;;;4978163;28;20367;-78
2022/07/07 03:37:14;;;;;;;5.30;0.68;;;15.70;58.40;;;;;;4977758;28;20451;-78
2022/07/07 03:39:40;;;;;;;3.35;0.52;;;15.60;30.20;;;;;;4978023;28;20599;-79
2022/07/07 03:42:06;;;;;;;3.60;0.93;;;15.60;35.60;;;;;;4977860;28;20039;-78
2022/07/07 03:44:32;;;;;;;3.70;0.55;;;15.50;57.30;;;;;;4977528;28;20026;-78
2022/07/07 03:46:58;;;;;;;2.67;0.50;;;15.40;77.10;;;;;;4977524;28;20098;-78
2022/07/07 03:49:23;;;;;;;5.47;0.52;;;15.30;54.00;;;;;;4977351;28;20111;-78
2022/07/07 03:51:49;;;;;;;2.40;0.60;;;15.30;33.00;;;;;;4977924;28;20109;-79
2022/07/07 03:54:15;;;;;;;5.07;0.77;;;15.30;21.90;;;;;;4978260;28;20030;-79
2022/07/07 03:56:41;;;;;;;4.68;0.57;;;15.40;12.00;;;;;;4977459;28;20022;-78
2022/07/07 03:59:06;;;;;;;6.68;1.15;;;15.40;14.10;;;;;;4977654;28;20019;-79
2022/07/07 04:01:32;;;;;;;4.18;0.63;;;15.40;9.60;;;;;;4977252;28;20085;-79
2022/07/07 04:03:57;;;;;;;4.95;0.80;;;15.40;4.80;;;;;;4977130;28;20054;-79
2022/07/07 04:06:23;;;;;;;3.65;0.50;;;15.30;5.90;;;;;;4976347;28;20029;-79
2022/07/07 04:08:49;;;;;;;3.03;0.52;;;15.30;6.00;;;;;;4977365;28;20041;-78
2022/07/07 04:11:15;;;;;;;3.90;0.70;;;15.40;1.00;;;;;;4977399;28;20023;-78
2022/07/07 04:13:41;;;;;;;3.70;1.25;;;15.60;1.00;;;;;;4977167;28;20039;-78
2022/07/07 04:16:07;;;;;;;3.40;0.77;;;15.60;1.00;;;;;;4977120;28;20049;-78
2022/07/07 04:18:33;;;;;;;6.85;0.95;;;15.70;1.00;;;;;;4976930;28;20395;-79
2022/07/07 04:20:59;;;;;;;4.70;0.60;;;15.80;1.00;;;;;;4977299;28;20102;-79
2022/07/07 04:23:24;;;;;;;7.78;1.15;;;15.80;1.00;;;;;;4976874;28;20419;-78
2022/07/07 04:25:50;;;;;;;4.63;0.77;;;15.70;1.00;;;;;;4976506;28;20030;-78
2022/07/07 04:28:16;;;;;;;5.82;1.08;;;15.60;1.00;;;;;;4976803;28;20031;-79
2022/07/07 04:30:41;;;;;;;3.08;1.02;;;15.60;1.00;;;;;;4976711;28;20467;-79
2022/07/07 04:33:07;;;;;;;6.30;1.13;;;15.60;1.00;;;;;;4975971;28;20122;-78
2022/07/07 04:35:32;;;;;;;6.85;1.20;;;15.60;9.20;;;;;;4962702;28;20059;-79
2022/07/07 04:37:58;;;;;;;7.90;1.38;;;15.70;1.00;;;;;;4964867;28;20031;-78
2022/07/07 04:40:23;;;;;;;6.88;1.00;;;15.80;1.00;;;;;;4975992;28;20054;-78
2022/07/07 04:42:49;;;;;;;5.07;1.00;;;15.80;1.00;;;;;;4976547;28;20027;-79
2022/07/07 04:45:14;;;;;;;5.18;0.90;;;15.80;1.00;;;;;;4976015;28;20029;-78
2022/07/07 04:47:41;;;;;;;6.90;0.70;;;15.70;1.00;;;;;;4975714;28;20025;-78
2022/07/07 04:50:11;;;;;;;7.15;1.00;;;15.80;1.00;;;;;;4973454;28;20034;-78
2022/07/07 04:52:38;;;;;;;3.53;0.70;;;15.80;1.00;;;;;;4956930;28;20042;-79
2022/07/07 04:55:05;;;;;;;7.43;0.80;;;15.80;1.00;;;;;;4957112;28;20031;-78
2022/07/07 04:57:30;;;;;;;2.65;0.80;;;15.90;1.00;;;;;;4975752;28;20050;-79
2022/07/07 04:59:57;;;;;;;3.80;0.60;;;15.90;1.00;;;;;;4976113;28;20057;-79
2022/07/07 05:02:22;;;;;;;3.67;0.50;;;16.00;1.00;;;;;;4976421;28;20138;-78
2022/07/07 05:04:51;;;;;;;3.85;0.68;;;16.00;1.00;;;;;;4976077;28;20686;-78
2022/07/07 05:07:18;;;;;;;4.72;1.00;;;16.00;1.00;;;;;;4975847;28;20038;-78
2022/07/07 05:09:43;;;;;;;1.92;0.47;;;16.00;1.00;;;;;;4975760;28;20054;-78
2022/07/07 05:12:09;;;;;;;2.03;0.50;;;16.00;1.00;;;;;;4975742;28;20403;-79
2022/07/07 05:14:35;;;;;;;1.05;0.40;;;16.00;1.00;;;;;;4975662;28;20027;-79
2022/07/07 05:17:00;;;;;;;4.13;0.93;;;16.00;1.00;;;;;;4975800;28;20034;-78
2022/07/07 05:19:26;;;;;;;4.22;0.50;;;16.00;1.00;;;;;;4975279;28;20030;-79
2022/07/07 05:21:52;;;;;;;1.85;0.70;;;16.20;1.00;;;;;;4976014;28;20038;-78
2022/07/07 05:24:20;;;;;;;6.40;0.82;;;16.40;1.00;;;;;;4975574;28;20134;-78
2022/07/07 05:26:46;;;;;;;9.02;0.70;;;16.50;1.00;;;;;;4975472;28;20085;-78
2022/07/07 05:29:12;;;;;;;2.78;0.57;;;16.50;1.00;;;;;;4975938;28;20023;-78
2022/07/07 05:31:38;;;;;;;5.55;0.82;;;16.60;1.00;;;;;;4975336;28;20113;-78
2022/07/07 05:34:03;;;;;;;3.22;0.65;;;16.70;1.00;;;;;;4975365;28;20543;-78
2022/07/07 05:36:30;;;;;;;4.78;0.73;;;16.40;1.00;;;;;;4975572;28;20359;-78
2022/07/07 05:38:56;;;;;;;5.10;0.70;;;16.30;4.20;;;;;;4975284;28;20379;-78
2022/07/07 05:41:21;;;;;;;2.95;0.90;;;16.30;1.00;;;;;;4975317;28;20037;-78
2022/07/07 05:43:48;;;;;;;3.50;0.50;;;16.40;1.00;;;;;;4975365;28;20033;-78
2022/07/07 05:46:13;;;;;;;1.20;0.30;;;16.40;1.00;;;;;;4975809;28;20025;-78
2022/07/07 05:48:39;;;;;;;3.15;0.32;;;16.30;1.00;;;;;;4975201;28;20023;-78
2022/07/07 05:51:05;;;;;;;1.58;0.22;;;16.10;1.00;;;;;;4974962;28;20022;-78
2022/07/07 05:53:31;;;;;;;2.67;0.30;;;16.20;1.00;;;;;;4975196;28;20035;-79
2022/07/07 05:55:57;;;;;;;2.88;0.30;;;16.40;1.00;;;;;;4975898;28;20110;-78
2022/07/07 05:58:22;;;;;;;1.85;0.50;;;16.90;1.00;;;;;;4975292;28;20122;-78
2022/07/07 06:00:48;;;;;;;3.08;0.65;;;17.50;1.00;;;;;;4974881;28;20034;-78
2022/07/07 06:03:14;;;;;;;5.75;0.40;;;17.20;1.00;;;;;;4974782;28;20497;-77
2022/07/07 06:05:40;;;;;;;4.68;0.60;;;20.40;99.90;;;;;;4975519;28;20501;-79
2022/07/07 06:08:06;;;;;;;4.57;0.60;;;23.60;99.90;;;;;;4975887;28;20481;-78
2022/07/07 06:10:32;;;;;;;4.65;0.40;;;19.90;99.90;;;;;;4975383;28;20047;-78
2022/07/07 06:12:57;;;;;;;2.55;0.30;;;19.00;99.90;;;;;;4973945;28;20019;-79
2022/07/07 06:15:23;;;;;;;4.03;0.60;;;18.30;99.90;;;;;;4974797;28;20046;-78
2022/07/07 06:17:49;;;;;;;4.15;0.60;;;17.30;1.00;;;;;;4975002;28;20027;-78
2022/07/07 06:20:14;;;;;;;3.67;0.40;;;17.90;1.00;;;;;;4974299;28;20058;-78
2022/07/07 06:22:40;;;;;;;1.50;0.40;;;19.80;99.90;;;;;;4974150;28;20034;-78
2022/07/07 06:25:08;;;;;;;7.63;0.60;;;24.30;99.90;;;;;;4974241;28;20034;-78
2022/07/07 06:27:35;;;;;;;2.85;0.38;;;23.20;99.90;;;;;;4974688;28;20082;-80
2022/07/07 06:30:01;;;;;;;1.88;0.40;;;24.20;99.90;;;;;;4976147;28;20077;-79
2022/07/07 06:32:26;;;;;;;1.63;0.20;;;20.80;99.90;;;;;;4978712;28;20038;-79
2022/07/07 06:34:52;;;;;;;2.85;0.43;;;18.60;99.90;;;;;;4978635;28;20033;-78
2022/07/07 06:37:18;;;;;;;1.80;0.43;;;18.40;1.00;;;;;;4978423;28;20034;-79
2022/07/07 06:39:44;;;;;;;2.08;0.45;;;19.20;99.90;;;;;;4978583;28;20550;-79
2022/07/07 06:42:09;;;;;;;5.53;0.40;;;20.10;99.90;;;;;;4978933;28;20022;-80
2022/07/07 06:44:35;;;;;;;2.20;0.32;;;20.10;99.90;;;;;;4977319;28;20057;-80
2022/07/07 06:47:01;;;;;;;2.83;0.40;;;21.90;99.90;;;;;;4978215;28;20055;-81
2022/07/07 06:49:27;;;;;;;4.45;0.50;;;27.00;99.90;;;;;;4977951;28;20042;-80
2022/07/07 06:51:54;;;;;;;3.90;0.50;;;28.70;99.90;;;;;;4978090;28;20023;-80
2022/07/07 06:54:20;;;;;;;1.35;0.40;;;26.30;99.90;;;;;;4978080;28;20550;-80
2022/07/07 06:56:45;;;;;;;0.80;0.20;;;24.50;99.90;;;;;;4969414;28;20050;-81
2022/07/07 06:59:11;;;;;;;2.08;0.50;;;24.90;99.90;;;;;;4973288;28;20038;-81
2022/07/07 07:01:37;;;;;;;1.75;0.50;;;28.40;99.90;;;;;;4977887;28;20074;-80
2022/07/07 07:04:03;;;;;;;2.03;0.70;;;26.20;99.90;;;;;;4979584;28;20359;-80
2022/07/07 07:06:28;;;;;;;2.78;0.43;;;28.10;99.90;;;;;;4977908;28;20023;-80
2022/07/07 07:08:55;;;;;;;1.00;0.60;;;29.70;99.90;;;;;;4977714;28;20023;-79
2022/07/07 07:11:21;;;;;;;2.35;0.50;;;29.50;99.90;;;;;;4977678;28;20019;-79
2022/07/07 07:13:47;;;;;;;4.38;0.57;;;31.00;99.90;;;;;;4977430;28;20118;-79
2022/07/07 07:16:15;;;;;;;3.53;0.95;;;27.70;99.90;;;;;;4973742;28;20043;-80
2022/07/07 07:18:40;;;;;;;2.65;0.45;;;24.10;99.90;;;;;;4957737;28;20502;-80
2022/07/07 07:21:06;;;;;;;3.97;0.65;;;21.90;99.90;;;;;;4967005;28;20027;-80
2022/07/07 07:23:31;;;;;;;5.15;1.13;;;21.10;99.90;;;;;;4977038;28;20074;-77
2022/07/07 07:25:57;;;;;;;2.22;0.80;;;21.10;99.90;;;;;;4976725;28;20027;-77
2022/07/07 07:28:22;;;;;;;2.17;0.63;;;22.60;99.90;;;;;;4976957;28;20027;-76
2022/07/07 07:30:48;;;;;;;2.60;0.30;;;20.80;99.90;;;;;;4976558;28;20157;-77
2022/07/07 07:33:14;;;;;;;1.88;0.38;;;19.50;99.90;;;;;;4975326;28;20129;-77
2022/07/07 07:35:40;;;;;;;3.92;0.60;;;20.20;99.90;;;;;;4976575;28;20047;-78
2022/07/07 07:38:05;;;;;;;2.28;0.20;;;19.50;99.90;;;;;;4976284;28;20129;-77
2022/07/07 07:40:31;;;;;;;0.95;0.30;;;19.50;99.90;;;;;;4976302;28;20023;-77
2022/07/07 07:42:56;;;;;;;1.02;0.20;;;20.10;99.90;;;;;;4975145;28;20023;-78
2022/07/07 07:45:23;;;;;;;2.83;0.50;;;23.40;99.90;;;;;;4976354;28;20671;-77
2022/07/07 07:47:49;;;;;;;2.78;0.35;;;28.60;99.90;;;;;;4976561;28;20023;-78
2022/07/07 07:50:18;;;;;;;3.05;0.80;;;25.30;99.90;;;;;;4976252;28;20026;-77
2022/07/07 07:52:44;;;;;;;2.55;0.70;;;23.40;99.90;;;;;;4972770;28;20031;-78
2022/07/07 07:55:11;;;;;;;1.05;0.22;;;22.90;99.90;;;;;;4956900;28;20029;-77
2022/07/07 07:57:37;;;;;;;1.33;0.60;;;21.80;99.90;;;;;;4964062;28;20367;-78
2022/07/07 08:00:04;;;;;;;5.32;0.60;;;21.20;99.90;;;;;;4976339;28;20462;-77
2022/07/07 08:02:30;;;;;;;5.53;0.63;;;20.10;99.90;;;;;;4976016;28;20035;-77
2022/07/07 08:04:56;;;;;;;2.28;0.30;;;19.30;99.90;;;;;;4969118;28;20027;-78
2022/07/07 08:07:21;;;;;;;3.22;0.55;;;19.10;99.90;;;;;;4964766;28;20030;-78
2022/07/07 08:09:47;;;;;;;3.35;0.50;;;19.60;99.90;;;;;;4975551;28;20118;-78
2022/07/07 08:12:12;;;;;;;1.92;0.47;;;20.70;99.90;;;;;;4974898;28;20520;-78
2022/07/07 08:14:38;;;;;;;1.35;0.50;;;24.90;99.90;;;;;;4956629;28;20069;-78
2022/07/07 08:17:04;;;;;;;4.05;0.80;;;27.80;99.90;;;;;;4961247;28;20103;-78
2022/07/07 08:19:29;;;;;;;5.45;1.40;;;25.50;99.90;;;;;;4975554;28;20055;-78
2022/07/07 08:21:55;;;;;;;3.25;0.63;;;23.00;99.90;;;;;;4976037;28;20093;-78
2022/07/07 08:24:21;;;;;;;2.17;0.60;;;21.20;99.90;;;;;;4976086;28;20031;-79
2022/07/07 08:26:47;;;;;;;3.30;0.65;;;21.50;99.90;;;;;;4971468;28;20063;-78
2022/07/07 08:29:13;;;;;;;5.13;0.85;;;21.20;99.90;;;;;;4976102;28;20455;-78
2022/07/07 08:31:39;;;;;;;4.22;0.93;;;20.50;99.90;;;;;;4963256;28;20023;-78
2022/07/07 08:34:05;;;;;;;6.30;0.88;;;22.40;99.90;;;;;;4956425;28;20050;-78
2022/07/07 08:36:31;;;;;;;0.85;0.43;;;24.70;99.90;;;;;;4956464;28;20058;-78
2022/07/07 08:38:57;;;;;;;4.18;0.85;;;24.10;99.90;;;;;;4956418;28;20047;-78
2022/07/07 08:41:24;;;;;;;3.70;0.90;;;23.00;99.90;;;;;;4956483;28;20086;-79
2022/07/07 08:43:49;;;;;;;4.65;0.70;;;21.40;99.90;;;;;;4956193;28;20086;-78
2022/07/07 08:46:15;;;;;;;1.13;0.40;;;20.50;99.90;;;;;;4956061;28;20023;-79
2022/07/07 08:48:41;;;;;;;1.35;0.45;;;20.10;99.90;;;;;;4956147;28;20028;-78
2022/07/07 08:51:08;;;;;;;0.20;0.15;;;20.40;99.90;;;;;;4960494;28;20106;-78
2022/07/07 08:53:35;;;;;;;3.65;0.60;;;22.30;99.90;;;;;;4975367;28;20026;-78
2022/07/07 08:56:05;;;;;;;4.07;0.75;;;27.30;99.90;;;;;;4975640;28;20023;-79
2022/07/07 08:58:32;;;;;;;2.05;0.50;;;24.70;99.90;;;;;;4975253;28;20375;-78
2022/07/07 09:00:58;;;;;;;3.20;0.38;;;21.90;99.90;;;;;;4975382;28;20018;-78
2022/07/07 09:03:26;;;;;;;0.57;0.20;;;20.40;99.90;;;;;;4973923;28;20146;-78
2022/07/07 09:05:53;;;;;;;1.65;0.30;;;19.70;99.90;;;;;;4975304;28;20081;-78
2022/07/07 09:08:21;;;;;;;0.25;0.10;;;19.80;99.90;;;;;;4975059;28;20053;-78
2022/07/07 09:10:47;;;;;;;0.55;0.13;;;20.50;99.90;;;;;;4976485;28;20069;-79
2022/07/07 09:13:29;;;;;;;0.50;0.25;;;21.20;99.90;;;;;;4977390;28;20034;-78
2022/07/07 09:16:04;;;;;;;2.28;0.75;;;24.10;99.90;;;;;;4977061;28;20165;-78
2022/07/07 09:18:36;;;;;;;0.98;0.50;;;25.50;99.90;;;;;;4976805;28;20049;-79
2022/07/07 09:21:07;;;;;;;0.70;0.30;;;22.20;99.90;;;;;;4973324;28;20026;-78
2022/07/07 09:23:33;;;;;;;3.50;0.30;;;22.00;99.90;;;;;;4967199;28;20034;-77
2022/07/07 09:26:00;;;;;;;1.27;0.38;;;23.40;99.90;;;;;;4976618;28;20025;-77
2022/07/07 09:28:27;;;;;;;3.20;0.47;;;23.80;99.90;;;;;;4974947;28;20082;-77
2022/07/07 09:30:53;;;;;;;2.72;0.70;;;21.20;99.90;;;;;;4974874;28;20029;-77
2022/07/07 09:33:21;;;;;;;2.95;0.82;;;19.60;99.90;;;;;;4974108;28;20672;-77
2022/07/07 09:38:35;;;;;;;5.63;0.88;;;19.20;99.90;;;;;;4974647;28;20081;-78
2022/07/07 09:41:05;;;;;;;3.47;0.88;;;19.10;99.90;;;;;;4974439;28;20019;-77
2022/07/07 09:43:52;;;;;;;5.05;0.60;;;19.70;99.90;;;;;;4974461;28;20034;-78
2022/07/07 09:46:24;;;;;;;3.15;0.57;;;20.30;99.90;;;;;;4961527;28;20110;-77
2022/07/07 09:48:53;;;;;;;2.97;0.50;;;19.30;99.90;;;;;;4974479;28;20027;-77
2022/07/07 09:51:27;;;;;;;7.00;0.85;;;18.70;99.90;;;;;;4969056;28;20023;-78
2022/07/07 09:53:57;;;;;;;4.38;0.85;;;18.30;99.90;;;;;;4955727;28;20043;-78
2022/07/07 09:56:24;;;;;;;;;;;18.20;99.90;;;;;;4974870;28;20015;-77
2022/07/07 09:58:50;;;;;;;6.07;0.90;;;17.80;1.00;;;;;;4974290;28;20214;-78
2022/07/07 10:01:24;;;;;;;2.50;0.52;;;17.80;1.00;;;;;;4974148;28;20042;-77
2022/07/07 10:03:56;;;;;;;3.53;1.08;;;18.10;99.90;;;;;;4977574;28;20418;-77
2022/07/07 10:06:24;;;;;;;2.22;0.43;;;18.40;99.90;;;;;;4968090;28;20054;-77
2022/07/07 10:08:56;;;;;;;4.93;0.93;;;18.40;99.90;;;;;;4954666;29;20090;-77
2022/07/07 10:11:24;;;;;;;9.73;1.20;;;18.40;99.90;;;;;;4966182;28;20022;-77
2022/07/07 10:13:51;;;;;;;10.32;2.00;;;18.40;99.90;;;;;;4974082;28;20487;-77
2022/07/07 10:16:16;;;;;;;5.88;1.33;;;18.70;99.90;;;;;;4973475;28;20027;-77
2022/07/07 10:18:44;;;;;;;4.97;0.98;;;19.00;99.90;;;;;;4973530;28;20027;-77
2022/07/07 10:21:10;;;;;;;4.63;1.75;;;19.00;99.90;;;;;;4973591;28;20058;-76
2022/07/07 10:23:35;;;;;;;7.28;0.90;;;19.70;99.90;;;;;;4973577;28;20058;-77
2022/07/07 10:26:07;;;;;;;6.70;1.08;;;20.80;99.90;;;;;;4973679;28;20019;-76
2022/07/07 10:28:59;;;;;;;8.35;1.73;;;20.90;99.90;;;;;;4974361;28;20019;-77
2022/07/07 10:31:28;;;;;;;6.70;1.55;;;20.60;99.90;;;;;;4973146;28;20031;-77
2022/07/07 10:34:00;;;;;;;7.93;1.30;;;20.40;99.90;;;;;;4972600;28;20061;-77
2022/07/07 10:36:26;;;;;;;3.47;0.98;;;21.00;99.90;;;;;;4960702;28;20479;-76
2022/07/07 10:38:56;;;;;;;7.38;1.55;;;20.90;99.90;;;;;;4970969;28;20056;-77
2022/07/07 10:41:24;;;;;;;3.75;1.38;;;21.00;99.90;;;;;;4958708;28;20023;-76
2022/07/07 10:44:18;;;;;;;5.68;1.38;;;20.90;99.90;;;;;;4962857;28;20027;-77
2022/07/07 10:47:16;;;;;;;6.60;1.25;;;19.90;99.90;;;;;;4962806;28;20046;-76
2022/07/07 10:49:47;;;;;;;4.75;1.20;;;19.60;99.90;;;;;;4956308;28;20039;-77
2022/07/07 10:52:18;;;;;;;4.85;0.82;;;19.50;99.90;;;;;;4969136;28;20031;-77
2022/07/07 10:54:52;;;;;;;3.13;1.02;;;19.50;99.90;;;;;;4972874;28;20049;-77
2022/07/07 10:57:26;;;;;;;7.35;1.42;;;19.30;99.90;;;;;;4972744;28;20047;-76
2022/07/07 11:00:00;;;;;;;10.07;1.48;;;19.40;99.90;;;;;;4972914;28;20027;-77
2022/07/07 11:02:42;;;;;;;4.90;1.00;;;19.90;99.90;;;;;;4971547;28;20073;-77
2022/07/07 11:05:14;;;;;;;5.30;1.15;;;21.20;99.90;;;;;;4972482;28;20394;-77
2022/07/07 11:07:41;;;;;;;3.22;0.85;;;22.20;99.90;;;;;;4962204;28;20463;-77
2022/07/07 11:10:09;;;;;;;5.63;0.90;;;21.50;99.90;;;;;;4970294;28;20100;-77
2022/07/07 11:12:46;;;;;;;2.05;0.82;;;20.20;99.90;;;;;;4963375;28;20428;-77
2022/07/07 11:15:22;;;;;;;4.78;0.60;;;19.80;99.90;;;;;;4957534;28;20031;-76
2022/07/07 11:17:57;;;;;;;3.70;0.68;;;19.30;99.90;;;;;;4960197;28;20037;-77
2022/07/07 11:20:24;;;;;;;6.30;1.25;;;19.10;99.90;;;;;;4976060;28;20122;-76
2022/07/07 11:22:52;;;;;;;6.75;1.10;;;19.30;99.90;;;;;;4976152;28;20492;-76
2022/07/07 11:25:21;;;;;;;3.30;0.65;;;19.30;99.90;;;;;;4976016;28;20058;-76
2022/07/07 11:27:48;;;;;;;7.85;1.33;;;19.40;99.90;;;;;;4976073;28;20042;-76
2022/07/07 11:30:14;;;;;;;6.95;1.10;;;19.60;99.90;;;;;;4976410;28;20019;-77
2022/07/07 11:32:42;;;;;;;4.18;0.80;;;19.70;99.90;;;;;;4965370;28;20050;-76
2022/07/07 11:35:10;;;;;;;5.43;1.05;;;20.00;99.90;;;;;;4956707;28;20039;-76
2022/07/07 11:37:43;;;;;;;4.88;0.88;;;20.10;99.90;;;;;;4966645;28;20034;-76
2022/07/07 11:40:14;;;;;;;3.00;0.90;;;20.10;99.90;;;;;;4975636;28;20569;-76
2022/07/07 11:42:43;;;;;;;4.13;1.02;;;20.50;99.90;;;;;;4956433;28;20031;-76
2022/07/07 11:45:22;;;;;;;5.95;0.95;;;20.80;99.90;;;;;;4956201;28;20395;-76
2022/07/07 11:47:49;;;;;;;4.03;0.80;;;21.50;99.90;;;;;;4975354;28;20034;-76
2022/07/07 11:50:16;;;;;;;2.60;0.95;;;21.10;99.90;;;;;;4975587;28;20055;-75
2022/07/07 11:52:49;;;;;;;3.13;0.80;;;20.80;99.90;;;;;;4975583;28;20023;-76
2022/07/07 11:55:17;;;;;;;4.00;1.08;;;20.80;99.90;;;;;;4975731;28;20130;-76
2022/07/07 11:57:49;;;;;;;3.60;0.85;;;20.60;99.90;;;;;;4956380;28;20479;-75
2022/07/07 12:00:19;;;;;;;6.28;1.00;;;20.80;99.90;;;;;;4956649;28;20486;-76
2022/07/07 12:02:50;;;;;;;4.03;0.73;;;20.80;99.90;;;;;;4956008;28;20475;-75
2022/07/07 12:05:23;;;;;;;1.48;0.50;;;21.10;99.90;;;;;;4956219;28;20048;-76
2022/07/07 12:08:03;;;;;;;4.38;0.75;;;20.40;99.90;;;;;;4956070;28;20471;-78
2022/07/07 12:10:34;;;;;;;4.40;0.65;;;20.60;99.90;;;;;;4955855;28;20118;-76
2022/07/07 12:13:01;;;;;;;4.47;0.90;;;20.80;99.90;;;;;;4954931;28;20670;-76
2022/07/07 12:15:29;;;;;;;2.45;0.63;;;20.20;99.90;;;;;;4974498;28;20026;-76
2022/07/07 12:17:56;;;;;;;3.17;1.05;;;20.10;99.90;;;;;;4955746;28;20047;-77
2022/07/07 12:20:22;;;;;;;3.13;0.80;;;19.90;99.90;;;;;;4966205;28;20015;-75
2022/07/07 12:22:57;;;;;;;6.43;1.35;;;19.80;99.90;;;;;;4974610;28;20585;-75
2022/07/07 12:25:24;;;;;;;7.90;2.28;;;19.40;99.90;;;;;;4963463;28;20027;-74
2022/07/07 12:28:07;;;;;;;4.82;0.82;;;19.20;99.90;;;;;;4974632;28;20019;-75
2022/07/07 12:30:35;;;;;;;4.60;1.05;;;19.10;99.90;;;;;;4974968;28;20027;-74
2022/07/07 12:33:02;;;;;;;3.78;0.85;;;19.00;99.90;;;;;;4974306;28;20046;-75
2022/07/07 12:35:37;;;;;;;3.95;1.15;;;19.30;99.90;;;;;;4974747;28;20037;-75
2022/07/07 12:38:04;;;;;;;6.90;1.27;;;18.80;99.90;;;;;;4960933;28;20057;-75
2022/07/07 12:40:31;;;;;;;6.70;1.05;;;19.10;99.90;;;;;;4974414;28;20015;-75
2022/07/07 12:43:04;;;;;;;4.82;1.27;;;19.30;99.90;;;;;;4974135;28;20375;-76
2022/07/07 12:45:30;;;;;;;5.65;1.20;;;18.40;99.90;;;;;;4974366;28;20047;-75
2022/07/07 12:47:56;;;;;;;10.50;1.33;;;18.50;99.90;;;;;;4974271;28;20070;-75
2022/07/07 12:50:23;;;;;;;3.08;0.75;;;18.50;99.90;;;;;;4974529;28;20026;-75
2022/07/07 12:53:05;;;;;;;2.92;1.15;;;18.90;99.90;;;;;;4974373;28;20015;-75
2022/07/07 12:55:41;;;;;;;6.53;1.10;;;19.50;99.90;;;;;;4958057;28;20034;-75